createdAt,value
2017-01-16T00:01:01.869Z,83.97
2017-01-16T00:02:16.928Z,83.3
2017-01-16T00:03:30.939Z,83.59
2017-01-16T00:04:44.990Z,82.73
2017-01-16T00:05:58.585Z,82.54
2017-01-16T00:07:12.173Z,82.31
2017-01-16T00:08:25.920Z,82.73
2017-01-16T00:09:39.858Z,82.73
2017-01-16T00:10:53.490Z,83.02
2017-01-16T00:12:07.109Z,82.35
2017-01-16T00:13:20.902Z,82.35
2017-01-16T00:14:35.890Z,82.54
2017-01-16T00:15:50.301Z,82.73
2017-01-16T00:17:03.890Z,82.07
2017-01-16T00:18:17.599Z,82.26
2017-01-16T00:19:31.178Z,81.98
2017-01-16T00:20:45.186Z,81.88
2017-01-16T00:21:59.564Z,82.17
2017-01-16T00:23:13.560Z,82.64
2017-01-16T00:24:28.887Z,83.02
2017-01-16T00:25:42.550Z,83.3
2017-01-16T00:26:56.468Z,82.92
2017-01-16T00:28:10.559Z,83.21
2017-01-16T00:29:24.352Z,83.21
2017-01-16T00:30:37.985Z,83.11
2017-01-16T00:31:51.869Z,83.11
2017-01-16T00:33:05.802Z,82.92
2017-01-16T00:34:20.523Z,83.11
2017-01-16T00:35:34.196Z,82.92
2017-01-16T00:36:47.786Z,83.02
2017-01-16T00:38:02.274Z,83.02
2017-01-16T00:39:16.129Z,83.02
2017-01-16T00:40:30.421Z,83.49
2017-01-16T00:41:44.721Z,83.59
2017-01-16T00:42:58.833Z,83.59
2017-01-16T00:44:12.597Z,83.21
2017-01-16T00:45:26.278Z,83.49
2017-01-16T00:46:40.393Z,83.87
2017-01-16T00:47:54.584Z,83.68
2017-01-16T00:49:08.253Z,83.49
2017-01-16T00:50:21.922Z,83.78
2017-01-16T00:51:35.548Z,83.4
2017-01-16T00:52:49.545Z,83.49
2017-01-16T00:54:03.449Z,83.49
2017-01-16T00:55:17.371Z,83.49
2017-01-16T00:56:31.145Z,83.49
2017-01-16T00:57:44.828Z,83.49
2017-01-16T00:58:58.913Z,83.3
2017-01-16T01:00:13.229Z,82.92
2017-01-16T01:01:26.941Z,83.02
2017-01-16T01:02:40.528Z,83.11
2017-01-16T01:03:56.333Z,82.92
2017-01-16T01:05:10.367Z,82.83
2017-01-16T01:06:24.139Z,82.83
2017-01-16T01:07:37.753Z,83.02
2017-01-16T01:08:51.828Z,82.54
2017-01-16T01:10:05.933Z,81.13
2017-01-16T01:11:20.091Z,81.41
2017-01-16T01:12:33.842Z,81.32
2017-01-16T01:13:47.867Z,81.32
2017-01-16T01:15:01.452Z,80.27
2017-01-16T01:16:15.179Z,79.9
2017-01-16T01:17:29.155Z,80.46
2017-01-16T01:18:43.687Z,81.13
2017-01-16T01:19:57.292Z,81.7
2017-01-16T01:21:12.329Z,81.51
2017-01-16T01:22:25.975Z,81.03
2017-01-16T01:23:39.948Z,79.99
2017-01-16T01:24:53.627Z,80.27
2017-01-16T01:26:07.277Z,79.71
2017-01-16T01:27:21.096Z,79.33
2017-01-16T01:28:34.860Z,78.58
2017-01-16T01:29:48.684Z,78.67
2017-01-16T01:31:02.300Z,78.58
2017-01-16T01:32:17.216Z,78.67
2017-01-16T01:33:30.859Z,79.33
2017-01-16T01:34:44.466Z,79.38
2017-01-16T01:35:58.825Z,79.48
2017-01-16T01:37:12.519Z,79.48
2017-01-16T01:38:26.148Z,79.57
2017-01-16T01:39:39.751Z,79.19
2017-01-16T01:40:53.403Z,79.19
2017-01-16T01:42:07.320Z,79.19
2017-01-16T01:43:21.092Z,78.53
2017-01-16T01:44:34.660Z,78.91
2017-01-16T01:45:48.273Z,79.19
2017-01-16T01:47:01.900Z,79.76
2017-01-16T01:48:15.927Z,79.38
2017-01-16T01:49:30.018Z,79.48
2017-01-16T01:50:43.660Z,79.57
2017-01-16T01:51:57.265Z,79.38
2017-01-16T01:53:10.886Z,79.48
2017-01-16T01:54:24.980Z,79.48
2017-01-16T01:55:38.603Z,79
2017-01-16T01:56:52.206Z,79.29
2017-01-16T01:58:05.862Z,79.29
2017-01-16T01:59:20.882Z,79
2017-01-16T02:00:34.895Z,79.38
2017-01-16T02:01:48.521Z,79.38
2017-01-16T02:03:03.241Z,79
2017-01-16T02:04:16.910Z,79.29
2017-01-16T02:05:30.472Z,79.1
2017-01-16T02:06:44.351Z,79.48
2017-01-16T02:07:57.945Z,79.48
2017-01-16T02:12:26.159Z,79.57
2017-01-16T02:13:39.997Z,80.24
2017-01-16T02:14:53.774Z,79.38
2017-01-16T02:16:07.362Z,79.57
2017-01-16T02:17:20.972Z,79.67
2017-01-16T02:18:34.828Z,79.48
2017-01-16T02:19:48.694Z,79.57
2017-01-16T02:21:03.888Z,79.48
2017-01-16T02:22:23.477Z,79.48
2017-01-16T02:23:37.364Z,79.76
2017-01-16T02:24:50.992Z,79.76
2017-01-16T02:26:05.414Z,79.95
2017-01-16T02:27:19.651Z,79.76
2017-01-16T02:28:37.538Z,80.24
2017-01-16T02:29:54.745Z,79.91
2017-01-16T02:31:10.209Z,80.29
2017-01-16T02:32:24.097Z,80.48
2017-01-16T02:33:38.169Z,80.33
2017-01-16T02:34:51.727Z,80.52
2017-01-16T02:36:05.301Z,80.14
2017-01-16T02:37:18.883Z,79.86
2017-01-16T02:38:32.877Z,79.48
2017-01-16T02:39:46.437Z,79.38
2017-01-16T02:41:00.012Z,79.38
2017-01-16T02:42:13.597Z,79.48
2017-01-16T02:43:27.312Z,79.67
2017-01-16T02:44:41.386Z,79.86
2017-01-16T02:45:54.996Z,80.14
2017-01-16T02:47:08.547Z,79.19
2017-01-16T02:48:22.275Z,79.29
2017-01-16T02:49:36.076Z,80.05
2017-01-16T02:50:50.329Z,80.33
2017-01-16T02:52:04.065Z,80.24
2017-01-16T02:53:17.982Z,80.33
2017-01-16T02:54:31.956Z,80.62
2017-01-16T02:55:45.514Z,80.52
2017-01-16T02:56:59.381Z,80.33
2017-01-16T02:58:12.946Z,80.24
2017-01-16T02:59:26.611Z,80.71
2017-01-16T03:00:40.577Z,80.24
2017-01-16T03:01:54.154Z,80.62
2017-01-16T03:03:08.020Z,80.62
2017-01-16T03:04:22.062Z,80.43
2017-01-16T03:05:36.113Z,80.52
2017-01-16T03:06:49.669Z,80.8
2017-01-16T03:08:03.375Z,80.9
2017-01-16T03:09:17.211Z,81.56
2017-01-16T03:10:32.013Z,81.84
2017-01-16T03:11:45.461Z,82.03
2017-01-16T03:12:58.927Z,82.5
2017-01-16T03:14:12.340Z,82.31
2017-01-16T03:15:26.309Z,82.6
2017-01-16T03:16:39.723Z,81.93
2017-01-16T03:17:53.176Z,82.12
2017-01-16T03:19:06.608Z,81.84
2017-01-16T03:20:20.064Z,81.65
2017-01-16T03:21:34.239Z,81.65
2017-01-16T03:22:47.715Z,81.56
2017-01-16T03:24:01.141Z,81.84
2017-01-16T03:25:14.639Z,81.46
2017-01-16T03:26:28.434Z,81.74
2017-01-16T03:27:42.151Z,82.12
2017-01-16T03:28:55.629Z,82.09
2017-01-16T03:30:09.059Z,81.74
2017-01-16T03:31:22.820Z,81.71
2017-01-16T03:32:36.262Z,81.99
2017-01-16T03:33:49.989Z,82.09
2017-01-16T03:35:03.411Z,81.99
2017-01-16T03:36:17.297Z,81.99
2017-01-16T03:37:31.177Z,82.65
2017-01-16T03:38:46.780Z,83.03
2017-01-16T03:40:00.463Z,82.93
2017-01-16T03:41:14.322Z,83.22
2017-01-16T03:42:27.858Z,84.54
2017-01-16T03:43:41.290Z,84.26
2017-01-16T03:44:54.754Z,84.3
2017-01-16T03:46:08.459Z,84.68
2017-01-16T03:47:23.138Z,84.92
2017-01-16T03:48:36.574Z,85.34
2017-01-16T03:49:50.410Z,84.86
2017-01-16T03:51:03.851Z,85.43
2017-01-16T03:52:17.616Z,85.24
2017-01-16T03:53:31.159Z,85.43
2017-01-16T03:54:44.747Z,85.53
2017-01-16T03:55:58.223Z,86.1
2017-01-16T03:57:11.635Z,85.81
2017-01-16T03:58:26.909Z,86.1
2017-01-16T03:59:40.314Z,86.19
2017-01-16T04:00:54.021Z,86.47
2017-01-16T04:02:07.920Z,86.29
2017-01-16T04:03:21.445Z,86
2017-01-16T04:04:35.197Z,85.72
2017-01-16T04:05:48.655Z,86
2017-01-16T04:07:02.509Z,85.72
2017-01-16T04:08:16.020Z,85.81
2017-01-16T04:09:29.529Z,85.53
2017-01-16T04:10:43.215Z,85.86
2017-01-16T04:11:56.659Z,86.62
2017-01-16T04:13:10.543Z,86.62
2017-01-16T04:14:24.041Z,86.99
2017-01-16T04:15:37.514Z,87.09
2017-01-16T04:16:51.227Z,86.76
2017-01-16T04:18:04.625Z,86.29
2017-01-16T04:19:18.160Z,86.29
2017-01-16T04:20:31.609Z,86.29
2017-01-16T04:21:45.192Z,85.62
2017-01-16T04:23:00.111Z,85.81
2017-01-16T04:24:15.858Z,85.43
2017-01-16T04:25:29.270Z,85.43
2017-01-16T04:26:42.717Z,85.05
2017-01-16T04:27:56.203Z,85.15
2017-01-16T04:29:09.922Z,84.96
2017-01-16T04:30:24.688Z,84.96
2017-01-16T04:31:38.164Z,85.05
2017-01-16T04:32:51.646Z,85.72
2017-01-16T04:34:05.055Z,85.62
2017-01-16T04:35:19.119Z,85.53
2017-01-16T04:36:32.539Z,85.72
2017-01-16T04:37:46.008Z,86
2017-01-16T04:38:59.480Z,86.19
2017-01-16T04:40:13.036Z,86.57
2017-01-16T04:41:26.964Z,86.47
2017-01-16T04:42:40.431Z,86.47
2017-01-16T04:43:53.893Z,86.62
2017-01-16T04:45:07.333Z,86.9
2017-01-16T04:46:35.667Z,86.24
2017-01-16T04:47:49.378Z,85.58
2017-01-16T04:49:02.829Z,85.58
2017-01-16T04:50:16.275Z,85.58
2017-01-16T04:51:29.710Z,85.11
2017-01-16T04:52:43.248Z,85.3
2017-01-16T04:53:56.990Z,84.73
2017-01-16T04:55:12.658Z,85.01
2017-01-16T04:56:26.582Z,85.3
2017-01-16T04:57:40.093Z,85.58
2017-01-16T04:58:53.573Z,85.77
2017-01-16T05:00:07.781Z,86.33
2017-01-16T05:01:21.194Z,86.19
2017-01-16T05:02:34.749Z,85.86
2017-01-16T05:03:48.187Z,86.47
2017-01-16T05:05:02.040Z,86.29
2017-01-16T05:06:15.796Z,86.29
2017-01-16T05:07:29.303Z,86.33
2017-01-16T05:08:42.766Z,86.66
2017-01-16T05:09:56.244Z,86.9
2017-01-16T05:11:09.816Z,86.9
2017-01-16T05:12:23.543Z,87.09
2017-01-16T05:13:37.112Z,87.09
2017-01-16T05:14:50.564Z,87.18
2017-01-16T05:16:04.062Z,87.28
2017-01-16T05:17:17.474Z,87.75
2017-01-16T05:18:31.340Z,87.66
2017-01-16T05:19:44.737Z,87.75
2017-01-16T05:20:58.179Z,87.47
2017-01-16T05:22:11.639Z,87.56
2017-01-16T05:23:25.085Z,87.94
2017-01-16T05:24:38.914Z,88.04
2017-01-16T05:25:52.330Z,87.66
2017-01-16T05:27:05.784Z,88.13
2017-01-16T05:28:19.200Z,88.32
2017-01-16T05:29:32.725Z,87.85
2017-01-16T05:30:46.483Z,87.66
2017-01-16T05:31:59.913Z,87.94
2017-01-16T05:33:13.307Z,87.18
2017-01-16T05:34:27.263Z,87.47
2017-01-16T05:35:40.718Z,87.89
2017-01-16T05:36:54.556Z,89.87
2017-01-16T05:38:08.003Z,90.82
2017-01-16T05:39:21.837Z,89.73
2017-01-16T05:40:35.325Z,88.22
2017-01-16T05:41:48.738Z,87.46
2017-01-16T05:43:02.522Z,84.34
2017-01-16T05:44:16.041Z,83.87
2017-01-16T05:45:33.128Z,82.92
2017-01-16T05:46:46.800Z,83.59
2017-01-16T05:48:00.251Z,83.36
2017-01-16T05:49:14.015Z,83.45
2017-01-16T05:50:27.708Z,83.64
2017-01-16T05:51:41.256Z,83.64
2017-01-16T05:52:55.105Z,84.01
2017-01-16T05:54:08.563Z,84.01
2017-01-16T05:55:22.366Z,83.64
2017-01-16T05:56:36.250Z,83.92
2017-01-16T05:57:50.070Z,83.83
2017-01-16T05:59:03.501Z,84.01
2017-01-16T06:00:17.005Z,83.73
2017-01-16T06:01:30.898Z,83.73
2017-01-16T06:02:44.475Z,84.39
2017-01-16T06:03:57.907Z,83.83
2017-01-16T06:05:11.362Z,84.11
2017-01-16T06:06:24.981Z,83.26
2017-01-16T06:07:38.708Z,83.26
2017-01-16T06:08:52.191Z,83.17
2017-01-16T06:10:05.594Z,83.45
2017-01-16T06:11:21.313Z,83.07
2017-01-16T06:12:34.740Z,82.88
2017-01-16T06:13:48.552Z,83.17
2017-01-16T06:15:02.397Z,82.41
2017-01-16T06:16:15.825Z,82.03
2017-01-16T06:17:30.536Z,81.65
2017-01-16T06:18:43.992Z,81.56
2017-01-16T06:19:57.720Z,81.74
2017-01-16T06:21:11.182Z,81.65
2017-01-16T06:22:26.614Z,81.18
2017-01-16T06:23:40.921Z,80.9
2017-01-16T06:24:57.700Z,80.52
2017-01-16T06:26:12.656Z,80.52
2017-01-16T06:27:27.380Z,81.09
2017-01-16T06:28:40.837Z,81.56
2017-01-16T06:29:54.275Z,81.18
2017-01-16T06:31:07.725Z,81.27
2017-01-16T06:32:21.505Z,81.46
2017-01-16T06:33:36.578Z,81.09
2017-01-16T06:34:50.014Z,81.8
2017-01-16T06:36:03.445Z,81.8
2017-01-16T06:37:16.862Z,81.42
2017-01-16T06:38:30.656Z,81.04
2017-01-16T06:39:44.172Z,80.38
2017-01-16T06:40:57.603Z,80.29
2017-01-16T06:42:11.418Z,81.04
2017-01-16T06:43:24.927Z,81.04
2017-01-16T06:44:38.665Z,80.29
2017-01-16T06:45:52.532Z,80.38
2017-01-16T06:47:06.059Z,80.48
2017-01-16T06:48:19.539Z,80.66
2017-01-16T06:49:33.462Z,80.66
2017-01-16T06:50:47.167Z,80.95
2017-01-16T06:52:00.649Z,81.04
2017-01-16T06:53:14.158Z,80.76
2017-01-16T06:54:27.879Z,81.42
2017-01-16T06:55:41.376Z,84.16
2017-01-16T06:56:55.090Z,87.56
2017-01-16T06:58:08.529Z,86.38
2017-01-16T06:59:22.089Z,84.96
2017-01-16T07:00:35.834Z,83.54
2017-01-16T07:01:49.280Z,83.17
2017-01-16T07:03:03.048Z,83.03
2017-01-16T07:04:16.538Z,82.46
2017-01-16T07:05:30.045Z,81.71
2017-01-16T07:06:43.498Z,81.42
2017-01-16T07:07:56.928Z,81.14
2017-01-16T07:09:10.628Z,81.8
2017-01-16T07:10:24.469Z,81.9
2017-01-16T07:11:37.907Z,81.52
2017-01-16T07:12:51.339Z,80.76
2017-01-16T07:14:04.824Z,81.33
2017-01-16T07:15:19.777Z,81.71
2017-01-16T07:16:33.659Z,81.8
2017-01-16T07:17:47.154Z,81.61
2017-01-16T07:19:00.642Z,81.8
2017-01-16T07:20:14.596Z,82.75
2017-01-16T07:21:28.405Z,82.75
2017-01-16T07:22:41.818Z,81.99
2017-01-16T07:23:55.266Z,82.65
2017-01-16T07:25:08.728Z,82.37
2017-01-16T07:26:22.286Z,82.65
2017-01-16T07:27:38.827Z,82.56
2017-01-16T07:28:52.356Z,81.42
2017-01-16T07:30:06.189Z,81.52
2017-01-16T07:31:19.821Z,81.61
2017-01-16T07:32:33.308Z,81.9
2017-01-16T07:33:47.101Z,83.03
2017-01-16T07:35:00.516Z,83.59
2017-01-16T07:36:14.272Z,84.35
2017-01-16T07:37:27.917Z,85.11
2017-01-16T07:38:41.618Z,84.39
2017-01-16T07:39:55.348Z,83.64
2017-01-16T07:41:08.866Z,83.64
2017-01-16T07:42:22.510Z,83.64
2017-01-16T07:43:35.923Z,84.01
2017-01-16T07:44:49.821Z,83.83
2017-01-16T07:46:03.736Z,83.73
2017-01-16T07:47:18.496Z,83.64
2017-01-16T07:48:31.984Z,83.54
2017-01-16T07:49:45.701Z,83.73
2017-01-16T07:50:59.297Z,83.83
2017-01-16T07:52:14.488Z,84.11
2017-01-16T07:53:28.029Z,84.2
2017-01-16T07:54:41.623Z,83.83
2017-01-16T07:55:55.455Z,84.49
2017-01-16T07:57:16.014Z,84.11
2017-01-16T07:58:29.751Z,84.2
2017-01-16T07:59:43.411Z,83.83
2017-01-16T08:00:57.094Z,83.83
2017-01-16T08:02:10.629Z,84.01
2017-01-16T08:03:25.071Z,84.3
2017-01-16T08:04:38.822Z,84.2
2017-01-16T08:05:52.276Z,83.83
2017-01-16T08:07:05.732Z,83.36
2017-01-16T08:08:19.270Z,83.45
2017-01-16T08:09:32.819Z,83.54
2017-01-16T08:10:46.856Z,83.73
2017-01-16T08:12:00.392Z,83.45
2017-01-16T08:13:14.154Z,82.88
2017-01-16T08:14:27.718Z,82.69
2017-01-16T08:15:41.172Z,82.79
2017-01-16T08:16:54.955Z,83.26
2017-01-16T08:18:08.454Z,83.17
2017-01-16T08:19:22.113Z,83.26
2017-01-16T08:20:36.212Z,82.41
2017-01-16T08:21:49.698Z,82.5
2017-01-16T08:23:03.531Z,82.5
2017-01-16T08:24:17.196Z,81.93
2017-01-16T08:25:30.767Z,82.12
2017-01-16T08:26:44.263Z,82.5
2017-01-16T08:27:57.777Z,82.31
2017-01-16T08:29:11.627Z,82.5
2017-01-16T08:30:25.231Z,82.69
2017-01-16T08:31:38.929Z,81.93
2017-01-16T08:32:52.466Z,81.84
2017-01-16T08:34:06.055Z,82.12
2017-01-16T08:35:20.120Z,82.79
2017-01-16T08:36:33.682Z,82.03
2017-01-16T08:37:47.204Z,81.84
2017-01-16T08:39:00.749Z,82.03
2017-01-16T08:40:14.361Z,81.84
2017-01-16T08:41:28.372Z,81.65
2017-01-16T08:42:41.945Z,81.27
2017-01-16T08:43:57.756Z,80.99
2017-01-16T08:45:11.510Z,80.9
2017-01-16T08:46:25.002Z,80.24
2017-01-16T08:47:38.805Z,79.95
2017-01-16T08:48:52.378Z,79.86
2017-01-16T08:50:06.704Z,79.76
2017-01-16T08:51:20.181Z,79.86
2017-01-16T08:52:33.700Z,80.05
2017-01-16T08:53:47.473Z,80.24
2017-01-16T08:55:01.029Z,79.86
2017-01-16T08:56:14.667Z,79.86
2017-01-16T08:57:28.152Z,79.57
2017-01-16T08:58:41.583Z,79.67
2017-01-16T08:59:55.303Z,79.33
2017-01-16T09:01:08.844Z,79.05
2017-01-16T09:02:22.269Z,79.24
2017-01-16T09:03:35.739Z,78.86
2017-01-16T09:04:49.166Z,78.86
2017-01-16T09:06:02.884Z,78.58
2017-01-16T09:07:18.066Z,78.72
2017-01-16T09:08:31.545Z,78.58
2017-01-16T09:09:45.020Z,78.81
2017-01-16T09:10:58.529Z,78.34
2017-01-16T09:12:13.385Z,78.53
2017-01-16T09:13:26.869Z,77.87
2017-01-16T09:14:40.344Z,78.06
2017-01-16T09:15:53.995Z,78.06
2017-01-16T09:17:07.551Z,78.06
2017-01-16T09:18:21.616Z,77.53
2017-01-16T09:19:35.506Z,77.63
2017-01-16T09:20:49.015Z,77.21
2017-01-16T09:22:03.223Z,77.25
2017-01-16T09:23:16.775Z,77.02
2017-01-16T09:24:30.495Z,76.74
2017-01-16T09:25:43.909Z,76.74
2017-01-16T09:26:57.383Z,76.55
2017-01-16T09:28:10.932Z,77.02
2017-01-16T09:29:24.586Z,77.06
2017-01-16T09:30:38.377Z,76.5
2017-01-16T09:31:52.109Z,76.31
2017-01-16T09:33:05.631Z,76.21
2017-01-16T09:34:19.235Z,76.02
2017-01-16T09:35:34.171Z,75.74
2017-01-16T09:36:47.936Z,75.55
2017-01-16T09:38:03.316Z,75.74
2017-01-16T09:39:16.792Z,75.83
2017-01-16T09:40:30.236Z,75.55
2017-01-16T09:41:44.177Z,74.98
2017-01-16T09:42:57.909Z,75.17
2017-01-16T09:44:11.426Z,74.69
2017-01-16T09:45:25.303Z,74.22
2017-01-16T09:46:38.716Z,75.07
2017-01-16T09:47:52.217Z,74.98
2017-01-16T09:49:06.037Z,75.36
2017-01-16T09:50:19.502Z,74.51
2017-01-16T09:51:33.066Z,74.41
2017-01-16T09:52:46.494Z,75.07
2017-01-16T09:54:00.445Z,74.69
2017-01-16T09:55:15.452Z,74.04
2017-01-16T09:56:28.949Z,74.41
2017-01-16T09:57:42.397Z,73.75
2017-01-16T09:58:55.848Z,73.28
2017-01-16T10:00:11.540Z,72.8
2017-01-16T10:01:25.274Z,72.9
2017-01-16T10:02:38.738Z,73.28
2017-01-16T10:03:52.213Z,73.47
2017-01-16T10:05:05.769Z,73.56
2017-01-16T10:06:19.181Z,73.37
2017-01-16T10:07:32.958Z,73.37
2017-01-16T10:08:46.408Z,73.28
2017-01-16T10:10:00.339Z,73.47
2017-01-16T10:11:14.266Z,72.43
2017-01-16T10:12:27.676Z,72.33
2017-01-16T10:13:41.507Z,72.52
2017-01-16T10:14:54.965Z,71.95
2017-01-16T10:16:08.541Z,71.58
2017-01-16T10:17:23.213Z,71.58
2017-01-16T10:18:37.050Z,71.67
2017-01-16T10:19:50.963Z,71.67
2017-01-16T10:21:04.534Z,71.95
2017-01-16T10:22:17.998Z,72.33
2017-01-16T10:23:31.469Z,72.71
2017-01-16T10:24:45.311Z,72.43
2017-01-16T10:25:59.086Z,71.95
2017-01-16T10:27:13.836Z,71.95
2017-01-16T10:28:27.711Z,72.33
2017-01-16T10:29:41.156Z,71.86
2017-01-16T10:30:54.581Z,71.77
2017-01-16T10:32:09.855Z,72.05
2017-01-16T10:33:23.520Z,71.67
2017-01-16T10:34:36.993Z,72.05
2017-01-16T10:35:50.479Z,71.67
2017-01-16T10:37:04.051Z,71.8
2017-01-16T10:38:17.797Z,71.8
2017-01-16T10:39:31.465Z,71.14
2017-01-16T10:40:44.947Z,71.04
2017-01-16T10:41:58.438Z,71.33
2017-01-16T10:43:11.938Z,71.33
2017-01-16T10:44:25.669Z,71.23
2017-01-16T10:45:39.134Z,70.95
2017-01-16T10:46:53.015Z,71.42
2017-01-16T10:48:06.548Z,71.04
2017-01-16T10:49:19.988Z,71.04
2017-01-16T10:50:34.100Z,70.95
2017-01-16T10:51:47.957Z,70.86
2017-01-16T10:53:01.487Z,70.48
2017-01-16T10:54:15.370Z,69.91
2017-01-16T10:55:28.770Z,69.72
2017-01-16T10:56:42.458Z,69.63
2017-01-16T10:57:56.045Z,69.72
2017-01-16T10:59:09.520Z,69.91
2017-01-16T11:00:22.981Z,70.1
2017-01-16T11:01:36.430Z,70.01
2017-01-16T11:02:50.134Z,70.01
2017-01-16T11:04:03.660Z,69.53
2017-01-16T11:05:17.127Z,69.25
2017-01-16T11:06:31.018Z,68.77
2017-01-16T11:07:44.462Z,68.59
2017-01-16T11:08:58.287Z,68.68
2017-01-16T11:10:11.754Z,69.44
2017-01-16T11:11:25.658Z,68.87
2017-01-16T11:12:39.632Z,69.25
2017-01-16T11:13:53.145Z,69.06
2017-01-16T11:15:07.135Z,68.12
2017-01-16T11:16:22.765Z,68.02
2017-01-16T11:17:36.203Z,68.12
2017-01-16T11:18:49.906Z,68.02
2017-01-16T11:20:03.435Z,68.12
2017-01-16T11:21:17.201Z,67.93
2017-01-16T11:22:30.609Z,67.83
2017-01-16T11:23:44.028Z,68.49
2017-01-16T11:24:57.515Z,68.87
2017-01-16T11:26:11.097Z,68.15
2017-01-16T11:27:24.865Z,68.02
2017-01-16T11:28:38.381Z,67.83
2017-01-16T11:29:51.943Z,68.12
2017-01-16T11:31:05.855Z,68.05
2017-01-16T11:32:19.323Z,67.55
2017-01-16T11:33:33.121Z,67.64
2017-01-16T11:34:46.595Z,67.83
2017-01-16T11:36:02.083Z,67.77
2017-01-16T11:37:15.550Z,67.86
2017-01-16T11:38:29.024Z,67.96
2017-01-16T11:39:42.825Z,67.49
2017-01-16T11:40:56.427Z,67.49
2017-01-16T11:42:10.333Z,68.15
2017-01-16T11:43:23.791Z,67.11
2017-01-16T11:44:37.271Z,67.11
2017-01-16T11:45:52.467Z,67.3
2017-01-16T11:47:05.936Z,66.73
2017-01-16T11:48:19.824Z,66.73
2017-01-16T11:49:33.689Z,66.63
2017-01-16T11:50:47.177Z,66.06
2017-01-16T11:52:01.147Z,66.06
2017-01-16T11:53:14.584Z,65.88
2017-01-16T11:54:28.137Z,66.53
2017-01-16T11:55:41.622Z,66.35
2017-01-16T11:56:55.120Z,66.53
2017-01-16T11:58:08.901Z,66.73
2017-01-16T11:59:22.381Z,66.69
2017-01-16T12:00:36.749Z,66.92
2017-01-16T12:01:50.304Z,66.44
2017-01-16T12:03:05.088Z,65.59
2017-01-16T12:04:18.858Z,65.21
2017-01-16T12:05:32.328Z,65.5
2017-01-16T12:06:45.793Z,64.8
2017-01-16T12:07:59.346Z,64.9
2017-01-16T12:09:12.899Z,65.28
2017-01-16T12:10:26.650Z,65.47
2017-01-16T12:11:40.504Z,65.59
2017-01-16T12:12:54.135Z,65.37
2017-01-16T12:14:07.608Z,65.59
2017-01-16T12:15:21.086Z,65.21
2017-01-16T12:16:34.832Z,65.21
2017-01-16T12:17:48.786Z,65.02
2017-01-16T12:19:02.371Z,64.93
2017-01-16T12:20:16.175Z,65.31
2017-01-16T12:21:29.635Z,65.59
2017-01-16T12:22:43.826Z,65.31
2017-01-16T12:23:58.161Z,65.5
2017-01-16T12:25:11.653Z,65.12
2017-01-16T12:26:25.092Z,64.93
2017-01-16T12:27:38.557Z,65.28
2017-01-16T12:28:52.466Z,65.28
2017-01-16T12:30:05.967Z,66.03
2017-01-16T12:31:19.881Z,65.28
2017-01-16T12:32:35.524Z,66.03
2017-01-16T12:33:49.089Z,65.75
2017-01-16T12:35:02.876Z,65.75
2017-01-16T12:36:16.351Z,64.9
2017-01-16T12:37:29.842Z,64.99
2017-01-16T12:38:43.260Z,65.56
2017-01-16T12:39:56.781Z,65.09
2017-01-16T12:41:10.621Z,65.28
2017-01-16T12:42:24.064Z,64.93
2017-01-16T12:43:37.597Z,65.21
2017-01-16T12:44:51.154Z,64.64
2017-01-16T12:46:04.610Z,64.8
2017-01-16T12:47:18.370Z,65.21
2017-01-16T12:48:31.799Z,65.31
2017-01-16T12:49:45.756Z,64.17
2017-01-16T12:50:59.237Z,64.26
2017-01-16T12:52:12.688Z,63.95
2017-01-16T12:53:26.414Z,64.23
2017-01-16T12:54:39.898Z,63.85
2017-01-16T12:55:53.521Z,63.85
2017-01-16T12:57:06.963Z,63.79
2017-01-16T12:58:20.405Z,63.23
2017-01-16T12:59:34.147Z,63.51
2017-01-16T13:00:47.709Z,62.75
2017-01-16T13:02:01.143Z,62.94
2017-01-16T13:03:14.570Z,62.75
2017-01-16T13:04:28.429Z,62.37
2017-01-16T13:05:42.682Z,62.66
2017-01-16T13:06:56.222Z,62.47
2017-01-16T13:08:09.697Z,62.75
2017-01-16T13:09:23.399Z,62.75
2017-01-16T13:10:36.856Z,62.85
2017-01-16T13:11:50.444Z,62.85
2017-01-16T13:13:03.966Z,62.85
2017-01-16T13:14:17.420Z,63.04
2017-01-16T13:15:31.012Z,62.66
2017-01-16T13:16:44.603Z,63.04
2017-01-16T13:17:58.378Z,62.94
2017-01-16T13:19:11.891Z,62.75
2017-01-16T13:20:25.372Z,62.47
2017-01-16T13:21:38.873Z,62.56
2017-01-16T13:22:52.533Z,62.44
2017-01-16T13:24:06.269Z,62.25
2017-01-16T13:25:20.167Z,62.44
2017-01-16T13:26:33.671Z,62.44
2017-01-16T13:27:47.400Z,62.53
2017-01-16T13:29:01.298Z,62.44
2017-01-16T13:30:15.108Z,62.44
2017-01-16T13:31:28.566Z,62.72
2017-01-16T13:32:43.391Z,62.18
2017-01-16T13:33:56.840Z,62.28
2017-01-16T13:35:10.770Z,61.99
2017-01-16T13:36:24.550Z,62.28
2017-01-16T13:37:39.386Z,61.71
2017-01-16T13:38:52.875Z,61.61
2017-01-16T13:40:06.467Z,61.8
2017-01-16T13:41:20.367Z,61.61
2017-01-16T13:42:35.024Z,61.61
2017-01-16T13:43:49.181Z,61.71
2017-01-16T13:45:02.829Z,62.37
2017-01-16T13:46:16.337Z,62.37
2017-01-16T13:47:29.933Z,62.47
2017-01-16T13:48:46.053Z,63.04
2017-01-16T13:49:59.589Z,63.6
2017-01-16T13:51:13.128Z,62.75
2017-01-16T13:52:26.619Z,62.85
2017-01-16T13:53:40.533Z,63.51
2017-01-16T13:54:54.780Z,63.57
2017-01-16T13:56:08.484Z,63.29
2017-01-16T13:57:22.064Z,63.29
2017-01-16T13:58:35.768Z,63.29
2017-01-16T13:59:49.349Z,63.23
2017-01-16T14:01:04.038Z,62.06
2017-01-16T14:02:17.579Z,62.06
2017-01-16T14:03:31.118Z,62.34
2017-01-16T14:04:44.709Z,61.96
2017-01-16T14:05:58.176Z,61.87
2017-01-16T14:07:11.933Z,61.58
2017-01-16T14:08:25.404Z,61.96
2017-01-16T14:09:39.582Z,62.25
2017-01-16T14:10:53.066Z,61.99
2017-01-16T14:12:06.636Z,61.58
2017-01-16T14:13:20.814Z,61.58
2017-01-16T14:14:34.442Z,61.96
2017-01-16T14:15:48.428Z,61.96
2017-01-16T14:17:01.903Z,62.06
2017-01-16T14:18:15.379Z,62.34
2017-01-16T14:19:29.155Z,62.15
2017-01-16T14:20:42.745Z,62.34
2017-01-16T14:21:56.241Z,61.99
2017-01-16T14:23:09.733Z,62.28
2017-01-16T14:24:23.574Z,62.18
2017-01-16T14:25:37.405Z,62.18
2017-01-16T14:26:50.914Z,62.15
2017-01-16T14:28:04.580Z,62.18
2017-01-16T14:29:18.110Z,62.15
2017-01-16T14:30:31.739Z,62.25
2017-01-16T14:31:46.043Z,62.06
2017-01-16T14:33:00.031Z,61.58
2017-01-16T14:34:13.562Z,61.3
2017-01-16T14:35:27.000Z,61.11
2017-01-16T14:36:41.837Z,61.11
2017-01-16T14:37:55.590Z,61.15
2017-01-16T14:39:09.065Z,61.02
2017-01-16T14:40:22.485Z,61.02
2017-01-16T14:41:36.431Z,61.3
2017-01-16T14:42:49.940Z,61.11
2017-01-16T14:44:03.710Z,61.11
2017-01-16T14:45:17.800Z,61.58
2017-01-16T14:46:32.991Z,61.96
2017-01-16T14:47:46.455Z,62.25
2017-01-16T14:48:59.921Z,62.15
2017-01-16T14:50:13.702Z,61.96
2017-01-16T14:51:27.165Z,62.44
2017-01-16T14:52:40.707Z,62.63
2017-01-16T14:53:54.159Z,62.34
2017-01-16T14:55:07.645Z,62.63
2017-01-16T14:56:21.399Z,62.63
2017-01-16T14:57:34.999Z,62.72
2017-01-16T14:58:49.141Z,62.82
2017-01-16T15:00:02.616Z,63.01
2017-01-16T15:01:16.280Z,62.82
2017-01-16T15:02:30.134Z,62.15
2017-01-16T15:03:43.632Z,62.34
2017-01-16T15:04:59.471Z,62.91
2017-01-16T15:06:13.022Z,62.91
2017-01-16T15:07:26.579Z,63.01
2017-01-16T15:08:40.454Z,62.82
2017-01-16T15:09:53.994Z,63.57
2017-01-16T15:11:07.502Z,63.48
2017-01-16T15:12:20.965Z,63.39
2017-01-16T15:13:35.748Z,63.57
2017-01-16T15:14:49.912Z,63.76
2017-01-16T15:16:03.775Z,63.95
2017-01-16T15:17:17.686Z,64.71
2017-01-16T15:18:32.422Z,65.18
2017-01-16T15:19:46.620Z,65.18
2017-01-16T15:21:01.327Z,65.56
2017-01-16T15:22:14.773Z,65.09
2017-01-16T15:23:28.218Z,65.94
2017-01-16T15:24:41.836Z,66.38
2017-01-16T15:25:55.303Z,66.75
2017-01-16T15:27:09.011Z,67.45
2017-01-16T15:28:22.459Z,67.07
2017-01-16T15:29:36.056Z,67.22
2017-01-16T15:30:50.136Z,67.07
2017-01-16T15:32:04.002Z,67.32
2017-01-16T15:33:17.756Z,67.32
2017-01-16T15:34:31.344Z,67.6
2017-01-16T15:35:44.843Z,67.26
2017-01-16T15:36:58.468Z,67.79
2017-01-16T15:38:11.941Z,67.79
2017-01-16T15:39:25.744Z,67.51
2017-01-16T15:40:39.309Z,67.51
2017-01-16T15:41:52.786Z,68.08
2017-01-16T15:43:06.221Z,67.98
2017-01-16T15:44:19.699Z,68.17
2017-01-16T15:45:48.362Z,67.98
2017-01-16T15:47:02.239Z,67.98
2017-01-16T15:48:15.679Z,68.08
2017-01-16T15:49:29.189Z,68.08
2017-01-16T15:50:43.124Z,68.84
2017-01-16T15:51:56.841Z,68.08
2017-01-16T15:53:10.307Z,67.89
2017-01-16T15:54:23.826Z,67.98
2017-01-16T15:55:37.360Z,68.17
2017-01-16T15:56:50.816Z,68.27
2017-01-16T15:58:04.572Z,67.98